sensor_id;sensor_type;location;lat;lon;timestamp;temperature;humidity
4826;DHT22;2427;50.934;6.776;2022-12-26T00:01:38;12.50;1.00
4826;DHT22;2427;50.934;6.776;2022-12-26T00:04:05;12.50;32.30
4826;DHT22;2427;50.934;6.776;2022-12-26T00:06:31;12.40;68.40
4826;DHT22;2427;50.934;6.776;2022-12-26T00:08:58;12.40;65.40
4826;DHT22;2427;50.934;6.776;2022-12-26T00:11:25;12.40;99.90
4826;DHT22;2427;50.934;6.776;2022-12-26T00:13:59;12.50;74.00
4826;DHT22;2427;50.934;6.776;2022-12-26T00:16:26;12.50;12.40
4826;DHT22;2427;50.934;6.776;2022-12-26T00:18:52;12.50;82.30
4826;DHT22;2427;50.934;6.776;2022-12-26T00:21:18;12.40;99.90
4826;DHT22;2427;50.934;6.776;2022-12-26T00:23:44;12.50;99.90
4826;DHT22;2427;50.934;6.776;2022-12-26T00:26:15;12.50;99.90
4826;DHT22;2427;50.934;6.776;2022-12-26T00:28:41;12.60;16.60
4826;DHT22;2427;50.934;6.776;2022-12-26T00:31:12;12.50;95.50
4826;DHT22;2427;50.934;6.776;2022-12-26T00:33:39;12.50;92.40
4826;DHT22;2427;50.934;6.776;2022-12-26T00:36:07;12.50;48.80
4826;DHT22;2427;50.934;6.776;2022-12-26T00:38:37;12.50;99.90
4826;DHT22;2427;50.934;6.776;2022-12-26T00:41:03;12.40;99.90
4826;DHT22;2427;50.934;6.776;2022-12-26T00:43:30;12.30;99.90
4826;DHT22;2427;50.934;6.776;2022-12-26T00:45:55;12.30;99.90
4826;DHT22;2427;50.934;6.776;2022-12-26T00:48:21;12.40;69.60
4826;DHT22;2427;50.934;6.776;2022-12-26T00:50:47;12.40;96.60
4826;DHT22;2427;50.934;6.776;2022-12-26T00:53:12;12.30;99.90
4826;DHT22;2427;50.934;6.776;2022-12-26T00:55:38;12.30;96.90
4826;DHT22;2427;50.934;6.776;2022-12-26T00:58:04;12.30;1.00
4826;DHT22;2427;50.934;6.776;2022-12-26T01:00:30;12.30;1.00
4826;DHT22;2427;50.934;6.776;2022-12-26T01:02:56;12.30;1.00
4826;DHT22;2427;50.934;6.776;2022-12-26T01:05:21;12.40;1.00
4826;DHT22;2427;50.934;6.776;2022-12-26T01:07:47;12.40;1.00
4826;DHT22;2427;50.934;6.776;2022-12-26T01:10:13;12.40;1.00
4826;DHT22;2427;50.934;6.776;2022-12-26T01:12:38;12.30;1.00
4826;DHT22;2427;50.934;6.776;2022-12-26T01:15:05;12.30;1.00
4826;DHT22;2427;50.934;6.776;2022-12-26T01:17:31;12.30;1.00
4826;DHT22;2427;50.934;6.776;2022-12-26T01:19:57;12.30;1.00
4826;DHT22;2427;50.934;6.776;2022-12-26T01:22:24;12.30;1.00
4826;DHT22;2427;50.934;6.776;2022-12-26T01:24:56;12.30;1.00
4826;DHT22;2427;50.934;6.776;2022-12-26T01:27:23;12.40;1.00
4826;DHT22;2427;50.934;6.776;2022-12-26T01:29:50;12.40;1.00
4826;DHT22;2427;50.934;6.776;2022-12-26T01:32:15;12.50;1.00
4826;DHT22;2427;50.934;6.776;2022-12-26T01:34:41;12.50;1.00
4826;DHT22;2427;50.934;6.776;2022-12-26T01:37:07;12.40;1.00
4826;DHT22;2427;50.934;6.776;2022-12-26T01:39:32;12.40;26.20
4826;DHT22;2427;50.934;6.776;2022-12-26T01:41:58;12.40;1.00
4826;DHT22;2427;50.934;6.776;2022-12-26T01:47:26;12.40;1.00
4826;DHT22;2427;50.934;6.776;2022-12-26T01:49:53;12.40;1.00
4826;DHT22;2427;50.934;6.776;2022-12-26T01:52:27;12.40;1.00
4826;DHT22;2427;50.934;6.776;2022-12-26T01:54:54;12.50;1.00
4826;DHT22;2427;50.934;6.776;2022-12-26T01:57:23;12.50;1.00
4826;DHT22;2427;50.934;6.776;2022-12-26T01:59:52;12.50;1.00
4826;DHT22;2427;50.934;6.776;2022-12-26T02:12:40;12.40;1.00
4826;DHT22;2427;50.934;6.776;2022-12-26T02:15:12;12.50;1.00
4826;DHT22;2427;50.934;6.776;2022-12-26T02:17:39;12.40;1.00
4826;DHT22;2427;50.934;6.776;2022-12-26T02:20:18;12.50;99.90
4826;DHT22;2427;50.934;6.776;2022-12-26T02:31:31;12.50;99.90
4826;DHT22;2427;50.934;6.776;2022-12-26T02:34:22;12.60;99.90
4826;DHT22;2427;50.934;6.776;2022-12-26T02:50:33;12.60;99.90
4826;DHT22;2427;50.934;6.776;2022-12-26T02:56:19;12.40;15.20
4826;DHT22;2427;50.934;6.776;2022-12-26T02:59:12;12.30;98.40
4826;DHT22;2427;50.934;6.776;2022-12-26T03:01:59;12.20;99.90
4826;DHT22;2427;50.934;6.776;2022-12-26T03:04:44;12.10;99.90
4826;DHT22;2427;50.934;6.776;2022-12-26T03:07:34;12.10;99.90
4826;DHT22;2427;50.934;6.776;2022-12-26T03:10:24;12.10;1.00
4826;DHT22;2427;50.934;6.776;2022-12-26T03:13:29;12.00;1.00
4826;DHT22;2427;50.934;6.776;2022-12-26T03:16:05;12.00;1.00
4826;DHT22;2427;50.934;6.776;2022-12-26T03:19:02;12.00;1.00
4826;DHT22;2427;50.934;6.776;2022-12-26T03:21:34;12.00;1.00
4826;DHT22;2427;50.934;6.776;2022-12-26T03:24:01;12.00;1.00
4826;DHT22;2427;50.934;6.776;2022-12-26T03:26:37;12.00;1.00
4826;DHT22;2427;50.934;6.776;2022-12-26T03:29:10;11.90;1.00
4826;DHT22;2427;50.934;6.776;2022-12-26T03:31:55;11.80;1.00
4826;DHT22;2427;50.934;6.776;2022-12-26T03:34:21;11.80;1.00
4826;DHT22;2427;50.934;6.776;2022-12-26T03:40:31;11.80;1.00
4826;DHT22;2427;50.934;6.776;2022-12-26T03:48:57;11.70;50.70
4826;DHT22;2427;50.934;6.776;2022-12-26T03:52:31;11.70;99.90
4826;DHT22;2427;50.934;6.776;2022-12-26T03:55:30;11.70;99.90
4826;DHT22;2427;50.934;6.776;2022-12-26T03:58:31;11.70;99.90
4826;DHT22;2427;50.934;6.776;2022-12-26T04:01:21;11.70;99.90
4826;DHT22;2427;50.934;6.776;2022-12-26T04:04:09;11.60;99.90
4826;DHT22;2427;50.934;6.776;2022-12-26T04:07:11;11.60;99.90
4826;DHT22;2427;50.934;6.776;2022-12-26T04:10:11;11.60;99.90
4826;DHT22;2427;50.934;6.776;2022-12-26T04:12:57;11.50;99.90
4826;DHT22;2427;50.934;6.776;2022-12-26T04:18:57;11.40;99.90
4826;DHT22;2427;50.934;6.776;2022-12-26T04:22:01;11.40;99.90
4826;DHT22;2427;50.934;6.776;2022-12-26T04:24:56;11.40;1.00
4826;DHT22;2427;50.934;6.776;2022-12-26T04:27:42;11.40;1.00
4826;DHT22;2427;50.934;6.776;2022-12-26T04:30:27;11.40;1.00
4826;DHT22;2427;50.934;6.776;2022-12-26T04:33:26;11.30;1.00
4826;DHT22;2427;50.934;6.776;2022-12-26T04:36:17;11.30;1.00
4826;DHT22;2427;50.934;6.776;2022-12-26T04:39:05;11.30;1.00
4826;DHT22;2427;50.934;6.776;2022-12-26T04:41:52;11.40;1.00
4826;DHT22;2427;50.934;6.776;2022-12-26T04:44:38;11.40;99.90
4826;DHT22;2427;50.934;6.776;2022-12-26T04:47:04;11.40;99.90
4826;DHT22;2427;50.934;6.776;2022-12-26T04:49:41;11.40;99.90
4826;DHT22;2427;50.934;6.776;2022-12-26T04:52:25;11.40;99.90
4826;DHT22;2427;50.934;6.776;2022-12-26T04:55:11;11.40;99.90
4826;DHT22;2427;50.934;6.776;2022-12-26T04:57:36;11.40;99.90
4826;DHT22;2427;50.934;6.776;2022-12-26T05:00:02;11.40;99.90
4826;DHT22;2427;50.934;6.776;2022-12-26T05:02:28;11.30;99.90
4826;DHT22;2427;50.934;6.776;2022-12-26T05:05:12;11.30;99.90
4826;DHT22;2427;50.934;6.776;2022-12-26T05:07:57;11.30;99.90
4826;DHT22;2427;50.934;6.776;2022-12-26T05:10:41;11.30;99.90
4826;DHT22;2427;50.934;6.776;2022-12-26T05:13:07;11.40;99.90
4826;DHT22;2427;50.934;6.776;2022-12-26T05:15:32;11.30;1.00
4826;DHT22;2427;50.934;6.776;2022-12-26T05:18:18;11.20;1.00
4826;DHT22;2427;50.934;6.776;2022-12-26T05:21:02;11.10;1.00
4826;DHT22;2427;50.934;6.776;2022-12-26T05:23:46;11.00;1.00
4826;DHT22;2427;50.934;6.776;2022-12-26T05:26:30;10.80;1.00
4826;DHT22;2427;50.934;6.776;2022-12-26T05:29:14;10.70;1.00
4826;DHT22;2427;50.934;6.776;2022-12-26T05:31:40;10.60;1.00
4826;DHT22;2427;50.934;6.776;2022-12-26T05:34:06;10.60;1.00
4826;DHT22;2427;50.934;6.776;2022-12-26T05:36:36;10.50;7.60
4826;DHT22;2427;50.934;6.776;2022-12-26T05:39:03;10.40;18.70
4826;DHT22;2427;50.934;6.776;2022-12-26T05:41:29;10.40;31.90
4826;DHT22;2427;50.934;6.776;2022-12-26T05:43:54;10.30;56.90
4826;DHT22;2427;50.934;6.776;2022-12-26T05:46:20;10.20;73.30
4826;DHT22;2427;50.934;6.776;2022-12-26T05:48:46;10.20;92.80
4826;DHT22;2427;50.934;6.776;2022-12-26T05:51:11;10.20;99.90
4826;DHT22;2427;50.934;6.776;2022-12-26T05:53:37;10.10;99.90
4826;DHT22;2427;50.934;6.776;2022-12-26T05:56:04;10.10;99.90
4826;DHT22;2427;50.934;6.776;2022-12-26T05:58:30;10.00;99.90
4826;DHT22;2427;50.934;6.776;2022-12-26T06:01:19;10.00;99.90
4826;DHT22;2427;50.934;6.776;2022-12-26T06:03:47;10.00;99.90
4826;DHT22;2427;50.934;6.776;2022-12-26T06:06:14;10.00;99.90
4826;DHT22;2427;50.934;6.776;2022-12-26T06:08:40;9.90;99.90
4826;DHT22;2427;50.934;6.776;2022-12-26T06:11:08;10.00;99.90
4826;DHT22;2427;50.934;6.776;2022-12-26T06:13:34;9.90;99.90
4826;DHT22;2427;50.934;6.776;2022-12-26T06:16:08;9.90;99.90
4826;DHT22;2427;50.934;6.776;2022-12-26T06:18:35;9.80;99.90
4826;DHT22;2427;50.934;6.776;2022-12-26T06:21:11;9.90;99.90
4826;DHT22;2427;50.934;6.776;2022-12-26T06:23:38;9.80;99.90
4826;DHT22;2427;50.934;6.776;2022-12-26T06:26:04;9.80;99.90
4826;DHT22;2427;50.934;6.776;2022-12-26T06:28:30;9.70;99.90
4826;DHT22;2427;50.934;6.776;2022-12-26T06:31:08;9.70;99.90
4826;DHT22;2427;50.934;6.776;2022-12-26T06:33:34;9.70;99.90
4826;DHT22;2427;50.934;6.776;2022-12-26T06:36:08;9.70;99.90
4826;DHT22;2427;50.934;6.776;2022-12-26T06:38:33;9.60;99.90
4826;DHT22;2427;50.934;6.776;2022-12-26T06:40:59;9.60;99.90
4826;DHT22;2427;50.934;6.776;2022-12-26T06:43:24;9.60;99.90
4826;DHT22;2427;50.934;6.776;2022-12-26T06:45:57;9.60;99.90
4826;DHT22;2427;50.934;6.776;2022-12-26T06:48:23;9.70;99.90
4826;DHT22;2427;50.934;6.776;2022-12-26T06:50:49;9.70;99.90
4826;DHT22;2427;50.934;6.776;2022-12-26T06:53:15;9.70;99.90
4826;DHT22;2427;50.934;6.776;2022-12-26T06:55:41;9.70;99.90
4826;DHT22;2427;50.934;6.776;2022-12-26T06:58:06;9.80;99.90
4826;DHT22;2427;50.934;6.776;2022-12-26T07:00:32;9.70;99.90
4826;DHT22;2427;50.934;6.776;2022-12-26T07:02:57;9.80;99.90
4826;DHT22;2427;50.934;6.776;2022-12-26T07:05:23;9.80;99.90
4826;DHT22;2427;50.934;6.776;2022-12-26T07:07:51;9.80;99.90
4826;DHT22;2427;50.934;6.776;2022-12-26T07:10:18;9.80;99.90
4826;DHT22;2427;50.934;6.776;2022-12-26T07:12:45;9.80;99.90
4826;DHT22;2427;50.934;6.776;2022-12-26T07:15:11;9.70;99.90
4826;DHT22;2427;50.934;6.776;2022-12-26T07:17:36;9.70;99.90
4826;DHT22;2427;50.934;6.776;2022-12-26T07:20:06;9.70;99.90
4826;DHT22;2427;50.934;6.776;2022-12-26T07:22:32;9.70;99.90
4826;DHT22;2427;50.934;6.776;2022-12-26T07:24:58;9.70;99.90
4826;DHT22;2427;50.934;6.776;2022-12-26T07:27:24;9.70;99.90
4826;DHT22;2427;50.934;6.776;2022-12-26T07:29:49;9.60;99.90
4826;DHT22;2427;50.934;6.776;2022-12-26T07:32:15;9.60;99.90
4826;DHT22;2427;50.934;6.776;2022-12-26T07:34:41;9.60;99.90
4826;DHT22;2427;50.934;6.776;2022-12-26T07:37:07;9.60;99.90
4826;DHT22;2427;50.934;6.776;2022-12-26T07:39:32;9.60;99.90
4826;DHT22;2427;50.934;6.776;2022-12-26T07:42:00;9.50;99.90
4826;DHT22;2427;50.934;6.776;2022-12-26T07:44:27;9.50;99.90
4826;DHT22;2427;50.934;6.776;2022-12-26T07:46:54;9.50;99.90
4826;DHT22;2427;50.934;6.776;2022-12-26T07:49:21;9.40;99.90
4826;DHT22;2427;50.934;6.776;2022-12-26T07:51:46;9.40;99.90
4826;DHT22;2427;50.934;6.776;2022-12-26T07:54:13;9.40;99.90
4826;DHT22;2427;50.934;6.776;2022-12-26T07:56:39;9.40;99.90
4826;DHT22;2427;50.934;6.776;2022-12-26T07:59:05;9.40;99.90
4826;DHT22;2427;50.934;6.776;2022-12-26T08:01:30;9.40;99.90
4826;DHT22;2427;50.934;6.776;2022-12-26T08:03:56;9.40;99.90
4826;DHT22;2427;50.934;6.776;2022-12-26T08:06:21;9.40;99.90
4826;DHT22;2427;50.934;6.776;2022-12-26T08:08:47;9.40;99.90
4826;DHT22;2427;50.934;6.776;2022-12-26T08:11:15;9.50;99.90
4826;DHT22;2427;50.934;6.776;2022-12-26T08:13:41;9.50;99.90
4826;DHT22;2427;50.934;6.776;2022-12-26T08:16:08;9.50;99.90
4826;DHT22;2427;50.934;6.776;2022-12-26T08:18:35;9.60;99.90
4826;DHT22;2427;50.934;6.776;2022-12-26T08:21:00;9.60;99.90
4826;DHT22;2427;50.934;6.776;2022-12-26T08:23:26;9.60;99.90
4826;DHT22;2427;50.934;6.776;2022-12-26T08:25:52;9.70;99.90
4826;DHT22;2427;50.934;6.776;2022-12-26T08:28:17;9.70;99.90
4826;DHT22;2427;50.934;6.776;2022-12-26T08:30:43;9.70;99.90
4826;DHT22;2427;50.934;6.776;2022-12-26T08:33:09;9.70;99.90
4826;DHT22;2427;50.934;6.776;2022-12-26T08:35:36;9.70;99.90
4826;DHT22;2427;50.934;6.776;2022-12-26T08:38:03;9.70;96.50
4826;DHT22;2427;50.934;6.776;2022-12-26T08:40:28;9.80;84.90
4826;DHT22;2427;50.934;6.776;2022-12-26T08:42:54;9.80;63.90
4826;DHT22;2427;50.934;6.776;2022-12-26T08:45:20;9.90;52.40
4826;DHT22;2427;50.934;6.776;2022-12-26T08:47:45;9.90;31.10
4826;DHT22;2427;50.934;6.776;2022-12-26T08:50:11;9.90;19.90
4826;DHT22;2427;50.934;6.776;2022-12-26T08:52:36;9.90;9.90
4826;DHT22;2427;50.934;6.776;2022-12-26T08:55:02;10.00;1.70
4826;DHT22;2427;50.934;6.776;2022-12-26T08:57:28;10.10;1.00
4826;DHT22;2427;50.934;6.776;2022-12-26T08:59:54;10.20;1.00
4826;DHT22;2427;50.934;6.776;2022-12-26T09:02:20;10.20;1.00
4826;DHT22;2427;50.934;6.776;2022-12-26T09:04:45;10.30;1.00
4826;DHT22;2427;50.934;6.776;2022-12-26T09:07:11;10.30;1.00
4826;DHT22;2427;50.934;6.776;2022-12-26T09:09:36;10.30;1.00
4826;DHT22;2427;50.934;6.776;2022-12-26T09:12:03;10.40;1.00
4826;DHT22;2427;50.934;6.776;2022-12-26T09:14:28;10.40;1.00
4826;DHT22;2427;50.934;6.776;2022-12-26T09:16:54;10.60;1.00
4826;DHT22;2427;50.934;6.776;2022-12-26T09:19:20;10.60;1.00
4826;DHT22;2427;50.934;6.776;2022-12-26T09:21:47;10.60;1.00
4826;DHT22;2427;50.934;6.776;2022-12-26T09:24:15;10.70;1.00
4826;DHT22;2427;50.934;6.776;2022-12-26T09:26:42;10.80;1.00
4826;DHT22;2427;50.934;6.776;2022-12-26T09:29:09;10.80;1.00
4826;DHT22;2427;50.934;6.776;2022-12-26T09:31:35;10.90;99.90
4826;DHT22;2427;50.934;6.776;2022-12-26T09:34:05;11.00;99.90
4826;DHT22;2427;50.934;6.776;2022-12-26T09:36:33;11.00;99.90
4826;DHT22;2427;50.934;6.776;2022-12-26T09:39:00;11.00;99.90
4826;DHT22;2427;50.934;6.776;2022-12-26T09:41:56;11.10;99.90
4826;DHT22;2427;50.934;6.776;2022-12-26T09:47:44;11.10;99.90
4826;DHT22;2427;50.934;6.776;2022-12-26T09:50:35;11.10;17.10
4826;DHT22;2427;50.934;6.776;2022-12-26T09:53:05;11.20;43.20
4826;DHT22;2427;50.934;6.776;2022-12-26T09:55:52;11.20;7.60
4826;DHT22;2427;50.934;6.776;2022-12-26T10:01:10;11.20;1.00
4826;DHT22;2427;50.934;6.776;2022-12-26T10:03:47;11.20;1.00
4826;DHT22;2427;50.934;6.776;2022-12-26T10:06:18;11.30;1.00
4826;DHT22;2427;50.934;6.776;2022-12-26T10:19:58;11.40;99.90
4826;DHT22;2427;50.934;6.776;2022-12-26T10:25:47;11.50;99.90
4826;DHT22;2427;50.934;6.776;2022-12-26T10:28:33;11.50;99.90
4826;DHT22;2427;50.934;6.776;2022-12-26T10:31:04;11.60;51.50
4826;DHT22;2427;50.934;6.776;2022-12-26T10:36:00;11.60;6.80
4826;DHT22;2427;50.934;6.776;2022-12-26T10:38:34;11.50;99.90
4826;DHT22;2427;50.934;6.776;2022-12-26T10:41:10;11.50;89.20
4826;DHT22;2427;50.934;6.776;2022-12-26T10:43:39;11.50;1.00
4826;DHT22;2427;50.934;6.776;2022-12-26T10:48:53;11.50;1.00
4826;DHT22;2427;50.934;6.776;2022-12-26T10:51:18;11.50;1.00
4826;DHT22;2427;50.934;6.776;2022-12-26T10:53:50;11.60;1.00
4826;DHT22;2427;50.934;6.776;2022-12-26T10:56:16;11.60;1.00
4826;DHT22;2427;50.934;6.776;2022-12-26T10:58:43;11.70;1.00
4826;DHT22;2427;50.934;6.776;2022-12-26T11:04:01;11.80;99.90
4826;DHT22;2427;50.934;6.776;2022-12-26T11:06:31;11.80;99.90
4826;DHT22;2427;50.934;6.776;2022-12-26T11:08:58;11.90;1.00
4826;DHT22;2427;50.934;6.776;2022-12-26T11:11:32;11.90;1.00
4826;DHT22;2427;50.934;6.776;2022-12-26T11:14:40;12.00;1.00
4826;DHT22;2427;50.934;6.776;2022-12-26T11:17:13;12.00;99.90
4826;DHT22;2427;50.934;6.776;2022-12-26T11:19:48;12.10;14.50
4826;DHT22;2427;50.934;6.776;2022-12-26T11:24:45;12.40;99.90
4826;DHT22;2427;50.934;6.776;2022-12-26T11:27:19;12.60;99.50
4826;DHT22;2427;50.934;6.776;2022-12-26T11:29:47;12.70;52.20
4826;DHT22;2427;50.934;6.776;2022-12-26T11:32:18;12.70;1.00
4826;DHT22;2427;50.934;6.776;2022-12-26T11:34:46;12.80;1.00
4826;DHT22;2427;50.934;6.776;2022-12-26T11:37:27;12.80;1.00
4826;DHT22;2427;50.934;6.776;2022-12-26T11:39:54;12.50;1.00
4826;DHT22;2427;50.934;6.776;2022-12-26T11:42:23;12.40;1.00
4826;DHT22;2427;50.934;6.776;2022-12-26T11:44:51;12.50;1.00
4826;DHT22;2427;50.934;6.776;2022-12-26T11:47:21;12.50;1.00
4826;DHT22;2427;50.934;6.776;2022-12-26T11:52:44;13.50;1.00
4826;DHT22;2427;50.934;6.776;2022-12-26T11:55:28;13.90;99.90
4826;DHT22;2427;50.934;6.776;2022-12-26T11:58:15;13.30;99.90
4826;DHT22;2427;50.934;6.776;2022-12-26T12:03:16;12.80;1.00
4826;DHT22;2427;50.934;6.776;2022-12-26T12:14:29;12.10;1.00
4826;DHT22;2427;50.934;6.776;2022-12-26T12:20:10;11.80;1.00
4826;DHT22;2427;50.934;6.776;2022-12-26T12:22:52;11.70;1.00
4826;DHT22;2427;50.934;6.776;2022-12-26T12:29:10;11.60;1.10
4826;DHT22;2427;50.934;6.776;2022-12-26T12:34:46;11.50;99.90
4826;DHT22;2427;50.934;6.776;2022-12-26T12:40:02;11.40;99.90
4826;DHT22;2427;50.934;6.776;2022-12-26T12:42:47;11.40;99.90
4826;DHT22;2427;50.934;6.776;2022-12-26T12:48:33;11.40;99.90
4826;DHT22;2427;50.934;6.776;2022-12-26T12:53:51;11.40;99.90
4826;DHT22;2427;50.934;6.776;2022-12-26T12:57:00;11.50;99.90
4826;DHT22;2427;50.934;6.776;2022-12-26T13:02:25;11.50;99.90
4826;DHT22;2427;50.934;6.776;2022-12-26T13:05:06;11.50;99.90
4826;DHT22;2427;50.934;6.776;2022-12-26T13:07:38;11.40;99.90
4826;DHT22;2427;50.934;6.776;2022-12-26T13:10:25;11.40;99.90
4826;DHT22;2427;50.934;6.776;2022-12-26T13:12:52;11.30;99.90
4826;DHT22;2427;50.934;6.776;2022-12-26T13:15:27;11.30;99.90
4826;DHT22;2427;50.934;6.776;2022-12-26T13:18:01;11.20;99.90
4826;DHT22;2427;50.934;6.776;2022-12-26T13:20:39;11.20;99.90
4826;DHT22;2427;50.934;6.776;2022-12-26T13:23:16;11.10;1.00
4826;DHT22;2427;50.934;6.776;2022-12-26T13:26:10;11.00;99.90
4826;DHT22;2427;50.934;6.776;2022-12-26T13:29:27;10.80;1.00
4826;DHT22;2427;50.934;6.776;2022-12-26T13:31:33;10.60;13.40
4826;DHT22;2427;50.934;6.776;2022-12-26T13:34:01;10.40;1.00
4826;DHT22;2427;50.934;6.776;2022-12-26T13:36:40;10.30;1.00
4826;DHT22;2427;50.934;6.776;2022-12-26T13:41:57;9.90;99.90
4826;DHT22;2427;50.934;6.776;2022-12-26T13:44:42;9.80;1.00
4826;DHT22;2427;50.934;6.776;2022-12-26T13:47:31;9.60;99.90
4826;DHT22;2427;50.934;6.776;2022-12-26T13:49:57;9.50;1.00
4826;DHT22;2427;50.934;6.776;2022-12-26T13:52:23;9.50;58.30
4826;DHT22;2427;50.934;6.776;2022-12-26T13:57:40;9.40;99.90
4826;DHT22;2427;50.934;6.776;2022-12-26T14:00:40;9.40;99.90
4826;DHT22;2427;50.934;6.776;2022-12-26T14:14:09;9.20;1.00
4826;DHT22;2427;50.934;6.776;2022-12-26T14:16:58;9.00;99.90
4826;DHT22;2427;50.934;6.776;2022-12-26T14:25:37;8.70;55.00
4826;DHT22;2427;50.934;6.776;2022-12-26T14:28:31;8.70;46.20
4826;DHT22;2427;50.934;6.776;2022-12-26T14:37:20;8.50;99.90
4826;DHT22;2427;50.934;6.776;2022-12-26T14:40:02;8.50;1.00
4826;DHT22;2427;50.934;6.776;2022-12-26T14:42:29;8.40;99.90
4826;DHT22;2427;50.934;6.776;2022-12-26T14:47:52;8.50;99.90
4826;DHT22;2427;50.934;6.776;2022-12-26T14:55:52;8.50;1.00
4826;DHT22;2427;50.934;6.776;2022-12-26T15:00:47;8.60;99.90
4826;DHT22;2427;50.934;6.776;2022-12-26T15:05:49;8.60;11.60
4826;DHT22;2427;50.934;6.776;2022-12-26T15:08:39;8.60;99.90
4826;DHT22;2427;50.934;6.776;2022-12-26T15:16:44;8.60;99.90
4826;DHT22;2427;50.934;6.776;2022-12-26T15:33:32;8.50;99.90
4826;DHT22;2427;50.934;6.776;2022-12-26T15:36:06;8.50;99.90
4826;DHT22;2427;50.934;6.776;2022-12-26T15:39:22;8.50;99.90
4826;DHT22;2427;50.934;6.776;2022-12-26T15:42:01;8.40;99.90
4826;DHT22;2427;50.934;6.776;2022-12-26T15:47:54;8.50;14.70
4826;DHT22;2427;50.934;6.776;2022-12-26T15:50:54;8.50;1.00
4826;DHT22;2427;50.934;6.776;2022-12-26T15:56:43;8.30;1.00
4826;DHT22;2427;50.934;6.776;2022-12-26T16:02:39;8.20;99.90
4826;DHT22;2427;50.934;6.776;2022-12-26T16:11:16;8.20;99.90
4826;DHT22;2427;50.934;6.776;2022-12-26T16:13:51;8.10;99.90
4826;DHT22;2427;50.934;6.776;2022-12-26T16:16:30;8.10;99.90
4826;DHT22;2427;50.934;6.776;2022-12-26T16:18:56;8.10;99.90
4826;DHT22;2427;50.934;6.776;2022-12-26T16:21:25;8.00;99.90
4826;DHT22;2427;50.934;6.776;2022-12-26T16:24:12;8.00;99.90
4826;DHT22;2427;50.934;6.776;2022-12-26T16:26:45;8.00;99.90
4826;DHT22;2427;50.934;6.776;2022-12-26T16:29:17;7.90;99.90
4826;DHT22;2427;50.934;6.776;2022-12-26T16:31:43;7.90;1.00
4826;DHT22;2427;50.934;6.776;2022-12-26T16:34:14;7.90;1.00
4826;DHT22;2427;50.934;6.776;2022-12-26T16:36:41;7.90;1.00
4826;DHT22;2427;50.934;6.776;2022-12-26T16:39:09;7.90;1.00
4826;DHT22;2427;50.934;6.776;2022-12-26T16:41:55;7.90;1.00
4826;DHT22;2427;50.934;6.776;2022-12-26T16:44:27;7.90;1.00
4826;DHT22;2427;50.934;6.776;2022-12-26T16:46:53;7.80;1.00
4826;DHT22;2427;50.934;6.776;2022-12-26T16:49:20;7.80;1.00
4826;DHT22;2427;50.934;6.776;2022-12-26T16:51:49;7.80;1.00
4826;DHT22;2427;50.934;6.776;2022-12-26T16:57:02;7.80;1.00
4826;DHT22;2427;50.934;6.776;2022-12-26T16:59:54;7.80;1.00
4826;DHT22;2427;50.934;6.776;2022-12-26T17:02:28;7.70;1.00
4826;DHT22;2427;50.934;6.776;2022-12-26T17:05:04;7.70;1.00
4826;DHT22;2427;50.934;6.776;2022-12-26T17:07:31;7.70;1.00
4826;DHT22;2427;50.934;6.776;2022-12-26T17:10:00;7.70;1.00
4826;DHT22;2427;50.934;6.776;2022-12-26T17:12:34;7.70;1.00
4826;DHT22;2427;50.934;6.776;2022-12-26T17:15:02;7.70;1.00
4826;DHT22;2427;50.934;6.776;2022-12-26T17:17:36;7.60;1.00
4826;DHT22;2427;50.934;6.776;2022-12-26T17:22:47;7.60;1.00
4826;DHT22;2427;50.934;6.776;2022-12-26T17:27:42;7.50;1.00
4826;DHT22;2427;50.934;6.776;2022-12-26T17:30:38;7.40;1.00
4826;DHT22;2427;50.934;6.776;2022-12-26T17:33:22;7.30;1.00
4826;DHT22;2427;50.934;6.776;2022-12-26T17:35:55;7.10;1.00
4826;DHT22;2427;50.934;6.776;2022-12-26T17:38:26;7.00;1.00
4826;DHT22;2427;50.934;6.776;2022-12-26T17:41:00;6.90;1.00
4826;DHT22;2427;50.934;6.776;2022-12-26T17:43:32;6.80;1.00
4826;DHT22;2427;50.934;6.776;2022-12-26T17:45:59;6.70;1.00
4826;DHT22;2427;50.934;6.776;2022-12-26T17:48:24;6.60;1.00
4826;DHT22;2427;50.934;6.776;2022-12-26T17:50:58;6.60;1.00
4826;DHT22;2427;50.934;6.776;2022-12-26T17:55:58;6.40;1.00
4826;DHT22;2427;50.934;6.776;2022-12-26T17:58:25;6.40;1.00
4826;DHT22;2427;50.934;6.776;2022-12-26T18:00:51;6.40;1.00
4826;DHT22;2427;50.934;6.776;2022-12-26T18:03:17;6.40;1.00
4826;DHT22;2427;50.934;6.776;2022-12-26T18:05:43;6.30;1.00
4826;DHT22;2427;50.934;6.776;2022-12-26T18:08:25;6.30;1.00
4826;DHT22;2427;50.934;6.776;2022-12-26T18:10:51;6.20;1.00
4826;DHT22;2427;50.934;6.776;2022-12-26T18:13:16;6.20;1.00
4826;DHT22;2427;50.934;6.776;2022-12-26T18:15:42;6.10;1.00
4826;DHT22;2427;50.934;6.776;2022-12-26T18:20:52;6.00;99.90
4826;DHT22;2427;50.934;6.776;2022-12-26T18:23:18;5.90;99.90
4826;DHT22;2427;50.934;6.776;2022-12-26T18:25:43;5.80;99.90
4826;DHT22;2427;50.934;6.776;2022-12-26T18:28:11;5.70;99.90
4826;DHT22;2427;50.934;6.776;2022-12-26T18:30:37;5.70;99.90
4826;DHT22;2427;50.934;6.776;2022-12-26T18:33:03;5.70;99.90
4826;DHT22;2427;50.934;6.776;2022-12-26T18:35:28;5.60;99.90
4826;DHT22;2427;50.934;6.776;2022-12-26T18:37:54;5.60;99.90
4826;DHT22;2427;50.934;6.776;2022-12-26T18:40:26;5.60;99.90
4826;DHT22;2427;50.934;6.776;2022-12-26T18:42:52;5.50;99.90
4826;DHT22;2427;50.934;6.776;2022-12-26T18:45:18;5.50;99.90
4826;DHT22;2427;50.934;6.776;2022-12-26T18:47:43;5.40;99.90
4826;DHT22;2427;50.934;6.776;2022-12-26T18:50:11;5.40;99.90
4826;DHT22;2427;50.934;6.776;2022-12-26T18:52:37;5.40;99.90
4826;DHT22;2427;50.934;6.776;2022-12-26T18:55:03;5.40;99.90
4826;DHT22;2427;50.934;6.776;2022-12-26T18:57:28;5.30;99.90
4826;DHT22;2427;50.934;6.776;2022-12-26T18:59:54;5.30;99.90
4826;DHT22;2427;50.934;6.776;2022-12-26T19:02:19;5.20;99.90
4826;DHT22;2427;50.934;6.776;2022-12-26T19:04:46;5.10;99.90
4826;DHT22;2427;50.934;6.776;2022-12-26T19:07:13;5.10;99.90
4826;DHT22;2427;50.934;6.776;2022-12-26T19:09:44;5.00;1.00
4826;DHT22;2427;50.934;6.776;2022-12-26T19:12:10;5.00;1.00
4826;DHT22;2427;50.934;6.776;2022-12-26T19:14:36;5.00;1.00
4826;DHT22;2427;50.934;6.776;2022-12-26T19:17:02;4.90;1.00
4826;DHT22;2427;50.934;6.776;2022-12-26T19:19:27;4.90;1.00
4826;DHT22;2427;50.934;6.776;2022-12-26T19:21:54;4.80;1.00
4826;DHT22;2427;50.934;6.776;2022-12-26T19:24:20;4.70;1.00
4826;DHT22;2427;50.934;6.776;2022-12-26T19:26:46;4.70;1.00
4826;DHT22;2427;50.934;6.776;2022-12-26T19:29:12;4.70;1.00
4826;DHT22;2427;50.934;6.776;2022-12-26T19:31:37;4.60;1.00
4826;DHT22;2427;50.934;6.776;2022-12-26T19:34:03;4.50;23.40
4826;DHT22;2427;50.934;6.776;2022-12-26T19:36:28;4.50;70.60
4826;DHT22;2427;50.934;6.776;2022-12-26T19:38:54;4.40;99.90
4826;DHT22;2427;50.934;6.776;2022-12-26T19:41:20;4.40;99.90
4826;DHT22;2427;50.934;6.776;2022-12-26T19:43:46;4.40;99.90
4826;DHT22;2427;50.934;6.776;2022-12-26T19:46:13;4.40;99.90
4826;DHT22;2427;50.934;6.776;2022-12-26T19:48:42;4.30;99.90
4826;DHT22;2427;50.934;6.776;2022-12-26T19:51:10;4.20;99.90
4826;DHT22;2427;50.934;6.776;2022-12-26T19:53:36;4.20;99.90
4826;DHT22;2427;50.934;6.776;2022-12-26T19:56:10;4.20;99.90
4826;DHT22;2427;50.934;6.776;2022-12-26T19:58:37;4.20;99.90
4826;DHT22;2427;50.934;6.776;2022-12-26T20:01:07;4.20;99.90
4826;DHT22;2427;50.934;6.776;2022-12-26T20:03:33;4.30;99.90
4826;DHT22;2427;50.934;6.776;2022-12-26T20:05:58;4.30;99.90
4826;DHT22;2427;50.934;6.776;2022-12-26T20:08:25;4.20;99.90
4826;DHT22;2427;50.934;6.776;2022-12-26T20:10:51;4.20;99.90
4826;DHT22;2427;50.934;6.776;2022-12-26T20:13:16;4.20;99.90
4826;DHT22;2427;50.934;6.776;2022-12-26T20:15:42;4.10;99.90